createdAt,value
2022-12-08T00:01:27.696Z,100772.31
2022-12-08T00:03:56.406Z,100766.94
2022-12-08T00:06:46.468Z,100761.56
2022-12-08T00:09:39.640Z,100761.56
2022-12-08T00:12:07.812Z,100769.63
2022-12-08T00:14:46.129Z,100763.41
2022-12-08T00:17:15.780Z,100774.13
2022-12-08T00:19:44.098Z,100771.47
2022-12-08T00:22:12.422Z,100767.09
2022-12-08T00:24:41.236Z,100761.84
2022-12-08T00:27:09.954Z,100762.69
2022-12-08T00:29:37.469Z,100751.13
2022-12-08T00:32:05.266Z,100751.13
2022-12-08T00:34:33.440Z,100752.06
2022-12-08T00:37:01.053Z,100750.25
2022-12-08T00:39:28.395Z,100749.41
2022-12-08T00:42:14.242Z,100755.75
2022-12-08T00:44:46.037Z,100758.44
2022-12-08T00:47:14.513Z,100756.59
2022-12-08T00:49:42.354Z,100757.59
2022-12-08T00:52:10.001Z,100748.69
2022-12-08T00:54:37.588Z,100742.47
2022-12-08T00:57:05.008Z,100743.31
2022-12-08T00:59:32.297Z,100744.31
2022-12-08T01:02:00.163Z,100747.84
2022-12-08T01:04:27.557Z,100751.38
2022-12-08T01:06:54.845Z,100744.31
2022-12-08T01:09:22.171Z,100761.28
2022-12-08T01:11:49.506Z,100770.16
2022-12-08T01:14:17.074Z,100773.84
2022-12-08T01:16:44.518Z,100765.91
2022-12-08T01:19:13.529Z,100769.44
2022-12-08T01:21:41.785Z,100764.91
2022-12-08T01:24:21.082Z,100772.97
2022-12-08T01:26:49.865Z,100768.59
2022-12-08T01:29:17.471Z,100781.03
2022-12-08T01:31:44.938Z,100782.00
2022-12-08T01:34:12.924Z,100785.53
2022-12-08T01:36:42.289Z,100777.50
2022-12-08T01:39:14.873Z,100770.44
2022-12-08T01:41:43.938Z,100779.31
2022-12-08T01:44:11.196Z,100770.44
2022-12-08T01:46:43.798Z,100773.97
2022-12-08T01:49:17.835Z,100768.75
2022-12-08T01:52:26.936Z,100765.22
2022-12-08T01:55:08.838Z,100755.44
2022-12-08T01:57:49.437Z,100756.31
2022-12-08T02:00:20.014Z,100759.94
2022-12-08T02:03:01.953Z,100762.63
2022-12-08T02:05:33.555Z,100759.09
2022-12-08T02:08:06.802Z,100756.41
2022-12-08T02:10:38.683Z,100751.91
2022-12-08T02:13:09.923Z,100751.91
2022-12-08T02:15:58.653Z,100746.69
2022-12-08T02:18:40.994Z,100756.56
2022-12-08T02:21:38.101Z,100754.72
2022-12-08T02:24:29.393Z,100753.75
2022-12-08T02:27:08.544Z,100751.19
2022-12-08T02:29:41.754Z,100751.19
2022-12-08T02:32:46.040Z,100743.16
2022-12-08T02:35:26.326Z,100737.78
2022-12-08T02:37:53.612Z,100731.56
2022-12-08T02:41:08.248Z,100728.72
2022-12-08T02:43:48.551Z,100740.47
2022-12-08T02:50:11.706Z,100718.13
2022-12-08T02:52:44.930Z,100717.28
2022-12-08T02:55:24.451Z,100722.66
2022-12-08T02:57:57.815Z,100717.28
2022-12-08T03:00:28.163Z,100717.28
2022-12-08T03:03:24.459Z,100713.63
2022-12-08T03:06:21.948Z,100702.16
2022-12-08T03:09:03.609Z,100706.66
2022-12-08T03:11:40.225Z,100707.41
2022-12-08T03:14:10.659Z,100704.84
2022-12-08T03:16:41.488Z,100686.03
2022-12-08T03:19:20.105Z,100689.72
2022-12-08T03:21:51.852Z,100677.16
2022-12-08T03:24:22.916Z,100679.97
2022-12-08T03:26:54.628Z,100679.84
2022-12-08T03:29:22.047Z,100676.31
2022-12-08T03:31:54.494Z,100670.94
2022-12-08T03:34:25.986Z,100677.16
2022-12-08T03:36:53.420Z,100679.00
2022-12-08T03:39:20.989Z,100676.31
2022-12-08T03:41:48.267Z,100675.47
2022-12-08T03:44:15.535Z,100682.66
2022-12-08T03:46:42.771Z,100682.66
2022-12-08T03:49:10.107Z,100674.59
2022-12-08T03:51:37.668Z,100679.13
2022-12-08T03:54:04.986Z,100674.59
2022-12-08T03:56:35.795Z,100671.09
2022-12-08T03:59:03.841Z,100681.81
2022-12-08T04:01:31.450Z,100684.50
2022-12-08T04:03:58.900Z,100677.28
2022-12-08T04:06:26.311Z,100674.72
2022-12-08T04:08:53.699Z,100672.91
2022-12-08T04:11:21.401Z,100679.25
2022-12-08T04:13:49.159Z,100670.22
2022-12-08T04:16:22.819Z,100671.09
2022-12-08T04:18:51.064Z,100677.41
2022-12-08T04:21:18.446Z,100670.22
2022-12-08T04:23:46.483Z,100672.91
2022-12-08T04:26:14.369Z,100665.81
2022-12-08T04:28:41.814Z,100677.41
2022-12-08T04:31:09.168Z,100672.03
2022-12-08T04:33:36.795Z,100665.81
2022-12-08T04:36:05.554Z,100666.81
2022-12-08T04:38:33.615Z,100666.81
2022-12-08T04:41:01.620Z,100664.13
2022-12-08T04:43:29.102Z,100661.44
2022-12-08T04:45:56.398Z,100662.28
2022-12-08T04:48:23.894Z,100657.09
2022-12-08T04:50:51.656Z,100654.41
2022-12-08T04:53:20.153Z,100644.66
2022-12-08T04:55:49.622Z,100657.09
2022-12-08T04:58:19.537Z,100651.81
2022-12-08T05:00:47.617Z,100654.50
2022-12-08T05:03:16.000Z,100652.81
2022-12-08T05:05:43.842Z,100648.28
2022-12-08T05:08:11.423Z,100646.47
2022-12-08T05:10:38.836Z,100648.28
2022-12-08T05:13:06.168Z,100649.13
2022-12-08T05:15:33.520Z,100648.28
2022-12-08T05:18:00.819Z,100648.44
2022-12-08T05:20:28.424Z,100648.44
2022-12-08T05:22:55.726Z,100657.34
2022-12-08T05:25:23.177Z,100658.34
2022-12-08T05:27:50.491Z,100654.66
2022-12-08T05:30:17.977Z,100648.44
2022-12-08T05:32:45.233Z,100651.13
2022-12-08T05:35:12.497Z,100651.13
2022-12-08T05:37:39.859Z,100640.41
2022-12-08T05:40:07.953Z,100637.72
2022-12-08T05:42:35.536Z,100639.53
2022-12-08T05:45:02.889Z,100649.44
2022-12-08T05:47:34.545Z,100646.75
2022-12-08T05:50:04.472Z,100635.16
2022-12-08T05:52:32.695Z,100641.38
2022-12-08T05:55:00.437Z,100636.88
2022-12-08T05:57:27.735Z,100644.91
2022-12-08T05:59:55.060Z,100641.50
2022-12-08T06:02:22.628Z,100639.66
2022-12-08T06:04:49.965Z,100642.34
2022-12-08T06:07:17.580Z,100643.34
2022-12-08T06:09:45.037Z,100649.56
2022-12-08T06:12:12.613Z,100638.81
2022-12-08T06:14:40.454Z,100647.72
2022-12-08T06:17:07.949Z,100655.75
2022-12-08T06:19:35.278Z,100653.97
2022-12-08T06:22:02.548Z,100648.72
2022-12-08T06:24:29.849Z,100654.06
2022-12-08T06:26:57.278Z,100648.84
2022-12-08T06:29:24.845Z,100649.69
2022-12-08T06:31:52.913Z,100658.59
2022-12-08T06:34:20.346Z,100655.06
2022-12-08T06:36:47.604Z,100661.28
2022-12-08T06:39:14.852Z,100659.59
2022-12-08T06:42:05.109Z,100660.59
2022-12-08T06:44:32.469Z,100663.25
2022-12-08T06:46:59.818Z,100663.25
2022-12-08T06:49:27.164Z,100653.50
2022-12-08T06:51:54.527Z,100660.69
2022-12-08T06:54:21.843Z,100661.53
2022-12-08T06:56:49.180Z,100659.84
2022-12-08T06:59:17.851Z,100658.16
2022-12-08T07:01:45.946Z,100661.69
2022-12-08T07:04:13.621Z,100655.47
2022-12-08T07:06:40.894Z,100661.69
2022-12-08T07:09:08.230Z,100658.16
2022-12-08T07:11:37.953Z,100655.47
2022-12-08T07:14:05.336Z,100661.84
2022-12-08T07:16:32.688Z,100661.84
2022-12-08T07:19:00.652Z,100669.00
2022-12-08T07:21:27.940Z,100664.63
2022-12-08T07:23:57.822Z,100660.13
2022-12-08T07:26:26.868Z,100670.84
2022-12-08T07:28:54.311Z,100676.22
2022-12-08T07:31:24.704Z,100665.63
2022-12-08T07:33:53.071Z,100675.38
2022-12-08T07:36:20.705Z,100670.00
2022-12-08T07:38:49.059Z,100662.94
2022-12-08T07:41:18.995Z,100661.09
2022-12-08T07:43:46.434Z,100663.78
2022-12-08T07:46:15.943Z,100674.53
2022-12-08T07:48:43.346Z,100671.00
2022-12-08T07:51:13.009Z,100678.19
2022-12-08T07:53:51.690Z,100675.63
2022-12-08T07:56:21.770Z,100680.03
2022-12-08T07:58:49.160Z,100668.44
2022-12-08T08:01:25.914Z,100659.53
2022-12-08T08:03:54.969Z,100653.47
2022-12-08T08:06:22.606Z,100657.84
2022-12-08T08:08:50.017Z,100661.50
2022-12-08T08:11:21.202Z,100653.59
2022-12-08T08:13:50.224Z,100660.78
2022-12-08T08:16:18.836Z,100655.41
2022-12-08T08:18:52.501Z,100650.19
2022-12-08T08:24:08.945Z,100660.78
2022-12-08T08:26:37.054Z,100666.03
2022-12-08T08:29:04.461Z,100661.50
2022-12-08T08:31:31.873Z,100663.34
2022-12-08T08:34:04.834Z,100662.34
2022-12-08T08:36:32.539Z,100664.19
2022-12-08T08:38:59.997Z,100658.69
2022-12-08T08:41:27.444Z,100671.25
2022-12-08T08:43:55.039Z,100666.88
2022-12-08T08:46:22.564Z,100667.56
2022-12-08T08:48:49.974Z,100666.72
2022-12-08T08:51:17.407Z,100677.47
2022-12-08T08:53:44.881Z,100678.31
2022-12-08T08:56:19.424Z,100680.16
2022-12-08T08:58:50.965Z,100682.72
2022-12-08T09:01:24.504Z,100684.41
2022-12-08T09:03:52.009Z,100687.94
2022-12-08T09:06:20.073Z,100683.56
2022-12-08T09:08:48.303Z,100684.25
2022-12-08T09:11:16.277Z,100701.34
2022-12-08T09:13:43.515Z,100691.47
2022-12-08T09:16:12.166Z,100686.09
2022-12-08T09:18:39.629Z,100686.09
2022-12-08T09:21:09.411Z,100695.00
2022-12-08T09:23:36.838Z,100692.31
2022-12-08T09:26:05.235Z,100695.72
2022-12-08T09:28:33.186Z,100689.50
2022-12-08T09:31:01.530Z,100687.69
2022-12-08T09:33:29.160Z,100686.94
2022-12-08T09:35:56.419Z,100688.94
2022-12-08T09:38:23.770Z,100697.81
2022-12-08T09:40:53.642Z,100691.59
2022-12-08T09:43:48.730Z,100680.16
2022-12-08T09:46:17.691Z,100679.31
2022-12-08T09:48:55.571Z,100682.13
2022-12-08T09:51:38.858Z,100677.75
2022-12-08T09:54:18.717Z,100662.50
2022-12-08T09:56:46.412Z,100669.56
2022-12-08T09:59:25.455Z,100669.41
2022-12-08T10:01:55.768Z,100661.25
2022-12-08T10:04:32.551Z,100659.41
2022-12-08T10:07:04.958Z,100654.03
2022-12-08T10:09:34.963Z,100660.13
2022-12-08T10:12:32.920Z,100661.84
2022-12-08T10:15:30.776Z,100659.16
2022-12-08T10:18:02.519Z,100660.00
2022-12-08T10:20:38.206Z,100660.13
2022-12-08T10:23:08.925Z,100655.75
2022-12-08T10:25:52.217Z,100657.44
2022-12-08T10:28:19.395Z,100656.47
2022-12-08T10:30:46.574Z,100656.47
2022-12-08T10:33:19.547Z,100659.25
2022-12-08T10:35:51.308Z,100654.03
2022-12-08T10:38:22.589Z,100650.63
2022-12-08T10:40:52.592Z,100644.56
2022-12-08T10:43:25.789Z,100635.66
2022-12-08T10:45:53.337Z,100641.16
2022-12-08T10:48:26.789Z,100635.78
2022-12-08T10:50:57.330Z,100630.41
2022-12-08T10:53:25.765Z,100635.78
2022-12-08T10:56:02.153Z,100632.25
2022-12-08T10:58:42.757Z,100634.94
2022-12-08T11:01:15.392Z,100631.41
2022-12-08T11:03:57.677Z,100623.63
2022-12-08T11:06:33.161Z,100615.56
2022-12-08T11:09:20.191Z,100618.16
2022-12-08T11:11:50.086Z,100613.63
2022-12-08T11:14:23.183Z,100605.25
2022-12-08T11:17:16.671Z,100598.53
2022-12-08T11:19:56.599Z,100599.94
2022-12-08T11:22:33.787Z,100586.47
2022-12-08T11:25:12.747Z,100582.03
2022-12-08T11:27:45.557Z,100576.75
2022-12-08T11:30:21.781Z,100585.63
2022-12-08T11:33:16.826Z,100585.56
2022-12-08T11:35:47.865Z,100572.22
2022-12-08T11:38:22.369Z,100575.84
2022-12-08T11:41:16.054Z,100572.50
2022-12-08T11:44:22.314Z,100565.50
2022-12-08T11:46:56.969Z,100567.63
2022-12-08T11:49:36.872Z,100569.91
2022-12-08T11:52:47.053Z,100555.25
2022-12-08T11:55:37.048Z,100563.88
2022-12-08T11:58:17.079Z,100568.97
2022-12-08T12:00:44.655Z,100567.91
2022-12-08T12:03:33.031Z,100563.25
2022-12-08T12:06:46.521Z,100574.69
2022-12-08T12:09:25.948Z,100571.88
2022-12-08T12:12:19.236Z,100562.00
2022-12-08T12:14:58.445Z,100547.59
2022-12-08T12:17:45.058Z,100536.75
2022-12-08T12:20:27.611Z,100544.66
2022-12-08T12:23:07.334Z,100544.50
2022-12-08T12:25:36.943Z,100542.69
2022-12-08T12:28:08.958Z,100546.22
2022-12-08T12:30:58.583Z,100546.91
2022-12-08T12:33:26.572Z,100533.50
2022-12-08T12:35:57.736Z,100538.88
2022-12-08T12:38:52.566Z,100537.03
2022-12-08T12:41:27.772Z,100531.66
2022-12-08T12:44:13.180Z,100535.19
2022-12-08T12:46:46.557Z,100529.84
2022-12-08T12:49:43.821Z,100517.31
2022-12-08T12:52:18.139Z,100520.81
2022-12-08T12:54:51.246Z,100522.50
2022-12-08T12:57:18.353Z,100513.63
2022-12-08T12:59:53.292Z,100511.78
2022-12-08T13:02:33.790Z,100507.41
2022-12-08T13:05:03.188Z,100515.31
2022-12-08T13:07:35.593Z,100512.63
2022-12-08T13:10:23.554Z,100518.13
2022-12-08T13:13:12.665Z,100515.31
2022-12-08T13:16:18.551Z,100516.16
2022-12-08T13:18:49.768Z,100522.38
2022-12-08T13:21:21.336Z,100522.50
2022-12-08T13:23:50.113Z,100511.63
2022-12-08T13:26:23.614Z,100505.44
2022-12-08T13:29:03.835Z,100503.59
2022-12-08T13:32:10.642Z,100510.78
2022-12-08T13:34:45.503Z,100508.25
2022-12-08T13:37:15.527Z,100503.75
2022-12-08T13:39:57.811Z,100507.25
2022-12-08T13:42:35.590Z,100505.56
2022-12-08T13:45:28.000Z,100508.94
2022-12-08T13:48:55.931Z,100509.94
2022-12-08T13:57:33.152Z,100509.09
2022-12-08T14:00:22.002Z,100512.63
2022-12-08T14:02:52.787Z,100511.78
2022-12-08T14:05:40.521Z,100507.25
2022-12-08T14:08:57.097Z,100502.91
2022-12-08T14:11:33.582Z,100516.16
2022-12-08T14:14:08.901Z,100528.56
2022-12-08T14:16:39.325Z,100519.84
2022-12-08T14:19:20.633Z,100523.34
2022-12-08T14:22:08.191Z,100518.00
2022-12-08T14:24:35.775Z,100516.16
2022-12-08T14:27:07.157Z,100506.41
2022-12-08T14:29:45.280Z,100516.31
2022-12-08T14:32:27.714Z,100513.63
2022-12-08T14:35:19.768Z,100518.13
2022-12-08T14:37:53.262Z,100519.97
2022-12-08T14:40:33.871Z,100516.31
2022-12-08T14:43:10.473Z,100509.09
2022-12-08T14:45:41.064Z,100507.25
2022-12-08T14:48:26.343Z,100513.63
2022-12-08T14:51:02.568Z,100510.94
2022-12-08T14:53:46.503Z,100515.47
2022-12-08T14:56:24.680Z,100506.56
2022-12-08T14:59:14.301Z,100502.03
2022-12-08T15:01:43.075Z,100507.41
2022-12-08T15:04:25.616Z,100519.09
2022-12-08T15:07:04.926Z,100519.97
2022-12-08T15:09:38.682Z,100512.91
2022-12-08T15:12:23.254Z,100509.38
2022-12-08T15:15:01.230Z,100520.81
2022-12-08T15:17:35.881Z,100512.78
2022-12-08T15:20:04.728Z,100516.41
2022-12-08T15:22:32.335Z,100515.47
2022-12-08T15:25:00.690Z,100514.63
2022-12-08T15:27:28.162Z,100530.72
2022-12-08T15:29:55.435Z,100519.97
2022-12-08T15:32:24.105Z,100511.06
2022-12-08T15:34:51.391Z,100509.25
2022-12-08T15:37:23.766Z,100518.25
2022-12-08T15:39:51.343Z,100516.41
2022-12-08T15:42:18.919Z,100512.06
2022-12-08T15:44:46.252Z,100510.22
2022-12-08T15:47:19.153Z,100511.06
2022-12-08T15:49:47.947Z,100510.22
2022-12-08T15:52:18.746Z,100508.38
2022-12-08T15:54:46.164Z,100511.06
2022-12-08T16:00:50.499Z,100521.78
2022-12-08T16:09:16.552Z,100530.81
2022-12-08T16:12:10.821Z,100531.81
2022-12-08T16:17:27.155Z,100536.34
2022-12-08T16:19:54.807Z,100526.59
2022-12-08T16:25:20.733Z,100526.44
2022-12-08T16:28:03.000Z,100532.81
2022-12-08T16:30:36.667Z,100534.66
2022-12-08T16:33:04.632Z,100530.97
2022-12-08T16:35:32.008Z,100525.59
2022-12-08T16:37:59.665Z,100527.44
2022-12-08T16:40:27.011Z,100532.81
2022-12-08T16:42:54.536Z,100525.72
2022-12-08T16:45:28.568Z,100526.59
2022-12-08T16:48:00.347Z,100523.03
2022-12-08T16:50:33.212Z,100528.28
2022-12-08T16:53:03.352Z,100526.44
2022-12-08T16:55:31.305Z,100524.75
2022-12-08T16:57:59.007Z,100533.78
2022-12-08T17:00:28.626Z,100539.13
2022-12-08T17:02:56.449Z,100540.00
2022-12-08T17:05:26.137Z,100533.78
2022-12-08T17:07:54.946Z,100524.88
2022-12-08T17:10:28.364Z,100513.31
2022-12-08T17:12:56.660Z,100521.25
2022-12-08T17:15:25.745Z,100512.31
2022-12-08T17:17:53.078Z,100523.03
2022-12-08T17:20:26.027Z,100527.56
2022-12-08T17:22:55.274Z,100532.94
2022-12-08T17:25:22.512Z,100523.91
2022-12-08T17:27:49.898Z,100524.03
2022-12-08T17:30:17.883Z,100530.13
2022-12-08T17:32:45.358Z,100525.72
2022-12-08T17:35:13.437Z,100528.28
2022-12-08T17:37:40.852Z,100533.78
2022-12-08T17:40:09.098Z,100534.66
2022-12-08T17:42:38.111Z,100529.13
2022-12-08T17:45:08.915Z,100530.97
2022-12-08T17:47:37.013Z,100524.63
2022-12-08T17:50:07.229Z,100526.31
2022-12-08T17:52:34.783Z,100519.97
2022-12-08T17:55:02.203Z,100512.78
2022-12-08T17:57:29.454Z,100506.41
2022-12-08T17:59:56.765Z,100514.31
2022-12-08T18:02:24.113Z,100511.63
2022-12-08T18:04:51.499Z,100515.03
2022-12-08T18:07:18.967Z,100512.38
2022-12-08T18:09:46.251Z,100513.22
2022-12-08T18:12:13.580Z,100515.75
2022-12-08T18:14:40.833Z,100517.47
2022-12-08T18:17:08.235Z,100516.47
2022-12-08T18:19:35.632Z,100502.22
2022-12-08T18:22:03.129Z,100513.78
2022-12-08T18:24:32.130Z,100516.31
2022-12-08T18:26:59.401Z,100527.06
2022-12-08T18:29:26.663Z,100536.81
2022-12-08T18:31:54.019Z,100541.19
2022-12-08T18:34:21.538Z,100525.94
2022-12-08T18:36:49.117Z,100517.75
2022-12-08T18:39:25.236Z,100522.16
2022-12-08T18:41:53.206Z,100528.34
2022-12-08T18:44:21.106Z,100529.91
2022-12-08T18:46:48.827Z,100519.16
2022-12-08T18:49:17.908Z,100522.69
2022-12-08T18:51:45.671Z,100526.09
2022-12-08T18:54:13.609Z,100534.16
2022-12-08T18:56:41.048Z,100533.16
2022-12-08T18:59:11.902Z,100530.34
2022-12-08T19:01:41.464Z,100529.38
2022-12-08T19:06:58.158Z,100519.31
2022-12-08T19:09:26.915Z,100528.22
2022-12-08T19:11:55.210Z,100526.25
2022-12-08T19:14:28.299Z,100525.41
2022-12-08T19:16:57.772Z,100521.75
2022-12-08T19:19:26.510Z,100514.41
2022-12-08T19:21:53.796Z,100511.72
2022-12-08T19:24:21.125Z,100508.06
2022-12-08T19:26:48.564Z,100507.06
2022-12-08T19:29:16.123Z,100502.69
2022-12-08T19:31:44.035Z,100514.25
2022-12-08T19:34:13.530Z,100520.47
2022-12-08T19:36:44.155Z,100515.94
2022-12-08T19:39:34.566Z,100515.09
2022-12-08T19:42:20.417Z,100502.53
2022-12-08T19:44:53.946Z,100504.22
2022-12-08T19:47:26.429Z,100503.38
2022-12-08T19:50:15.412Z,100505.09
2022-12-08T19:52:43.518Z,100505.94
2022-12-08T19:55:11.801Z,100498.72
2022-12-08T19:57:42.163Z,100504.09
2022-12-08T20:00:10.815Z,100509.47
2022-12-08T20:02:38.540Z,100514.69
2022-12-08T20:05:07.369Z,100504.78
2022-12-08T20:07:35.056Z,100504.78
2022-12-08T20:10:05.879Z,100501.16
2022-12-08T20:12:33.534Z,100498.47
2022-12-08T20:15:00.784Z,100505.53
2022-12-08T20:17:28.057Z,100511.00
2022-12-08T20:19:55.421Z,100519.78
2022-12-08T20:22:22.776Z,100514.41
2022-12-08T20:24:57.399Z,100515.25
2022-12-08T20:27:29.113Z,100510.72
2022-12-08T20:29:56.473Z,100508.06
2022-12-08T20:32:23.766Z,100502.56
2022-12-08T20:34:51.244Z,100486.47
2022-12-08T20:37:19.581Z,100486.31
2022-12-08T20:39:46.926Z,100487.16
2022-12-08T20:42:14.336Z,100490.69
2022-12-08T20:44:44.387Z,100484.47
2022-12-08T20:47:13.157Z,100494.22
2022-12-08T20:49:40.668Z,100500.41
2022-12-08T20:52:08.841Z,100498.59
2022-12-08T20:54:37.415Z,100494.22
2022-12-08T20:57:04.987Z,100498.59
2022-12-08T20:59:32.640Z,100497.63
2022-12-08T21:02:00.731Z,100516.41
2022-12-08T21:04:28.275Z,100512.72
2022-12-08T21:06:56.033Z,100505.78
2022-12-08T21:09:23.670Z,100509.34
2022-12-08T21:11:51.293Z,100515.41
2022-12-08T21:14:18.723Z,100510.03
2022-12-08T21:16:46.358Z,100509.19
2022-12-08T21:19:13.777Z,100498.47
2022-12-08T21:21:41.105Z,100496.63
2022-12-08T21:24:09.331Z,100494.78
2022-12-08T21:26:36.883Z,100496.47
2022-12-08T21:29:05.105Z,100500.03
2022-12-08T21:31:33.564Z,100491.09
2022-12-08T21:34:02.191Z,100491.09
2022-12-08T21:36:30.753Z,100500.03
2022-12-08T21:39:00.754Z,100500.88
2022-12-08T21:41:48.327Z,100491.97
2022-12-08T21:44:19.474Z,100486.59
2022-12-08T21:46:47.354Z,100478.41
2022-12-08T21:49:15.479Z,100484.63
2022-12-08T21:51:42.898Z,100482.78
2022-12-08T21:54:18.737Z,100480.09
2022-12-08T21:56:49.099Z,100484.47
2022-12-08T21:59:18.123Z,100483.63
2022-12-08T22:01:45.874Z,100478.13
2022-12-08T22:04:18.051Z,100471.75
2022-12-08T22:06:45.986Z,100468.06
2022-12-08T22:09:15.262Z,100468.06
2022-12-08T22:11:43.644Z,100473.31
2022-12-08T22:14:14.968Z,100476.00
2022-12-08T22:16:43.837Z,100473.31
2022-12-08T22:19:12.519Z,100473.16
2022-12-08T22:21:40.303Z,100470.34
2022-12-08T22:24:08.241Z,100476.53
2022-12-08T22:26:35.787Z,100484.47
2022-12-08T22:29:03.289Z,100481.78
2022-12-08T22:31:30.776Z,100478.38
2022-12-08T22:33:59.332Z,100481.06
2022-12-08T22:36:27.989Z,100485.59
2022-12-08T22:38:55.824Z,100484.75
2022-12-08T22:41:23.832Z,100490.13
2022-12-08T22:43:51.408Z,100501.84
2022-12-08T22:46:26.425Z,100493.94
2022-12-08T22:48:54.824Z,100503.81
2022-12-08T22:51:22.453Z,100496.75
2022-12-08T22:53:50.156Z,100484.34
2022-12-08T22:56:20.330Z,100472.75
2022-12-08T22:58:47.837Z,100475.44
2022-12-08T23:01:30.767Z,100472.88
2022-12-08T23:03:59.424Z,100466.66
2022-12-08T23:06:27.996Z,100471.03
2022-12-08T23:08:56.624Z,100472.88
2022-12-08T23:11:28.377Z,100472.03
2022-12-08T23:13:56.388Z,100472.88
2022-12-08T23:16:23.945Z,100472.88
2022-12-08T23:18:51.514Z,100474.59
2022-12-08T23:21:20.761Z,100477.41
2022-12-08T23:23:48.688Z,100467.50
2022-12-08T23:26:20.245Z,100468.34
2022-12-08T23:28:48.149Z,100472.88
2022-12-08T23:31:16.106Z,100472.03
2022-12-08T23:33:44.314Z,100470.19
2022-12-08T23:36:13.920Z,100462.97
2022-12-08T23:38:41.838Z,100460.28
2022-12-08T23:41:11.860Z,100449.56
2022-12-08T23:43:44.513Z,100454.94
2022-12-08T23:46:12.251Z,100444.19
2022-12-08T23:48:39.991Z,100437.00
2022-12-08T23:51:07.781Z,100435.16
2022-12-08T23:53:35.906Z,100427.97
2022-12-08T23:56:08.303Z,100432.47
2022-12-08T23:58:36.664Z,100438.69
